Time;durP1;ratioP1;P1;durP2;ratioP2;P2;SDS_P1;SDS_P2;PMS_P1;PMS_P2;Temp;Humidity;BMP_temperature;BMP_pressure;BME280_temperature;BME280_humidity;BME280_pressure;Samples;Min_cycle;Max_cycle;Signal;HPM_P1;HPM_P2
2022/08/16 00:00:37;;;;;;;;;;;;;;;27.50;39.62;98942.50;2089643;28;19931;-71
2022/08/16 00:01:38;;;;;;;;;;;;;;;27.50;39.74;98935.03;2094987;28;19923;-73
2022/08/16 00:02:38;;;;;;;;;;;;;;;27.50;39.80;98928.66;2086467;28;20774;-71
2022/08/16 00:03:38;;;;;;;;;;;;;;;27.50;39.48;98928.66;2087091;28;19966;-72
2022/08/16 00:04:39;;;;;;;;;;;;;;;27.48;39.49;98919.75;2089586;28;19912;-70
2022/08/16 00:05:39;;;;;;;;;;;;;;;27.48;39.63;98916.97;2091874;28;20395;-71
2022/08/16 00:06:40;;;;;;;;;;;;;;;27.47;39.49;98915.31;2095368;28;19912;-71
2022/08/16 00:07:41;;;;;;;;;;;;;;;27.47;39.64;98918.06;2092139;28;20665;-71
2022/08/16 00:08:41;;;;;;;;;;;;;;;27.47;39.62;98920.84;2091538;28;19920;-72
2022/08/16 00:09:41;;;;;;;;;;;;;;;27.46;39.48;98921.91;2095152;28;20586;-72
2022/08/16 00:10:42;;;;;;;;;;;;;;;27.45;39.43;98914.69;2083238;28;20319;-71
2022/08/16 00:11:43;;;;;;;;;;;;;;;27.44;39.61;98915.75;2084394;28;19951;-71
2022/08/16 00:12:44;;;;;;;;;;;;;;;27.44;39.33;98910.22;2091748;28;20589;-72
2022/08/16 00:13:44;;;;;;;;;;;;;;;27.43;39.43;98922.38;2088221;28;20071;-72
2022/08/16 00:14:44;;;;;;;;;;;;;;;27.44;39.32;98910.22;2092868;28;19923;-70
2022/08/16 00:15:46;;;;;;;;;;;;;;;27.44;39.44;98912.97;2089258;28;19963;-72
2022/08/16 00:16:47;;;;;;;;;;;;;;;27.44;39.60;98913.84;2082786;28;19921;-72
2022/08/16 00:17:47;;;;;;;;;;;;;;;27.43;39.52;98905.78;2083025;28;20007;-71
2022/08/16 00:18:47;;;;;;;;;;;;;;;27.42;39.66;98904.94;2094232;28;19916;-71
2022/08/16 00:19:48;;;;;;;;;;;;;;;27.43;39.47;98900.25;2086228;28;20176;-74
2022/08/16 00:20:50;;;;;;;;;;;;;;;27.44;39.33;98904.69;2095838;28;19966;-71
2022/08/16 00:21:51;;;;;;;;;;;;;;;27.43;39.51;98901.06;2085590;28;19992;-71
2022/08/16 00:22:52;;;;;;;;;;;;;;;27.44;39.71;98901.91;2087603;28;19916;-72
2022/08/16 00:23:52;;;;;;;;;;;;;;;27.44;39.45;98901.91;2087501;28;19920;-71
2022/08/16 00:24:53;;;;;;;;;;;;;;;27.45;39.54;98898.09;2088535;28;20235;-71
2022/08/16 00:25:53;;;;;;;;;;;;;;;27.44;39.52;98891.72;2094896;28;19916;-71
2022/08/16 00:26:54;;;;;;;;;;;;;;;27.45;39.66;98895.31;2086982;28;20256;-71
2022/08/16 00:27:54;;;;;;;;;;;;;;;27.45;39.60;98898.09;2089732;28;19908;-71
2022/08/16 00:28:54;;;;;;;;;;;;;;;27.44;39.61;98894.47;2094009;28;19912;-71
2022/08/16 00:29:54;;;;;;;;;;;;;;;27.46;39.65;98894.22;2090675;28;19940;-72
2022/08/16 00:30:55;;;;;;;;;;;;;;;27.44;39.54;98888.06;2091633;28;20011;-72
2022/08/16 00:31:56;;;;;;;;;;;;;;;27.45;39.57;98887.03;2089584;28;19900;-72
2022/08/16 00:32:57;;;;;;;;;;;;;;;27.44;39.53;98888.94;2087216;28;20667;-72
2022/08/16 00:33:57;;;;;;;;;;;;;;;27.44;39.61;98888.94;2085620;28;20345;-71
2022/08/16 00:34:58;;;;;;;;;;;;;;;27.44;39.74;98886.19;2086996;28;20016;-71
2022/08/16 00:35:58;;;;;;;;;;;;;;;27.45;39.59;98887.03;2087574;28;19912;-71
2022/08/16 00:36:59;;;;;;;;;;;;;;;27.44;39.67;98890.84;2087243;28;19916;-72
2022/08/16 00:38:01;;;;;;;;;;;;;;;27.45;39.70;98887.03;2088274;28;19944;-72
2022/08/16 00:39:02;;;;;;;;;;;;;;;27.44;39.58;98888.06;2083579;28;19916;-71
2022/08/16 00:40:03;;;;;;;;;;;;;;;27.44;39.39;98885.31;2090799;28;19912;-71
2022/08/16 00:41:06;;;;;;;;;;;;;;;27.44;39.73;98886.19;2089652;28;19940;-72
2022/08/16 00:42:06;;;;;;;;;;;;;;;27.43;39.60;98881.72;2092137;28;20680;-72
2022/08/16 00:43:09;;;;;;;;;;;;;;;27.44;39.68;98882.53;2091305;28;20535;-71
2022/08/16 00:44:09;;;;;;;;;;;;;;;27.44;39.54;98882.53;2088164;28;19912;-71
2022/08/16 00:45:16;;;;;;;;;;;;;;;27.44;39.53;98885.31;2085901;28;19961;-71
2022/08/16 00:46:16;;;;;;;;;;;;;;;27.44;39.64;98879.78;2088135;28;19960;-72
2022/08/16 00:47:17;;;;;;;;;;;;;;;27.45;39.54;98881.47;2090533;28;19920;-72
2022/08/16 00:48:19;;;;;;;;;;;;;;;27.44;39.74;98885.31;2091874;28;19927;-72
2022/08/16 00:49:20;;;;;;;;;;;;;;;27.44;39.52;98883.41;2087886;28;20271;-72
2022/08/16 00:50:23;;;;;;;;;;;;;;;27.43;39.57;98878.09;2088566;28;19912;-72
2022/08/16 00:51:24;;;;;;;;;;;;;;;27.44;39.40;98879.78;2089776;28;20018;-72
2022/08/16 00:52:24;;;;;;;;;;;;;;;27.43;39.66;98872.56;2088716;28;19920;-72
2022/08/16 00:53:25;;;;;;;;;;;;;;;27.43;39.31;98878.09;2087075;28;19946;-72
2022/08/16 00:54:26;;;;;;;;;;;;;;;27.41;39.53;98875.56;2091137;28;19951;-72
2022/08/16 00:55:27;;;;;;;;;;;;;;;27.42;39.51;98873.66;2088642;28;19927;-71
2022/08/16 00:56:31;;;;;;;;;;;;;;;27.42;39.71;98870.88;2087329;28;19913;-71
2022/08/16 00:57:31;;;;;;;;;;;;;;;27.42;39.44;98870.88;2091183;28;19920;-72
2022/08/16 00:58:33;;;;;;;;;;;;;;;27.41;39.45;98870.03;2094113;28;19912;-72
2022/08/16 00:59:36;;;;;;;;;;;;;;;27.41;39.39;98875.56;2086570;28;20000;-72
2022/08/16 01:00:37;;;;;;;;;;;;;;;27.41;39.64;98863.66;2078184;28;19985;-70
2022/08/16 01:01:37;;;;;;;;;;;;;;;27.39;39.38;98869.44;2077639;28;20849;-71
2022/08/16 01:02:38;;;;;;;;;;;;;;;27.39;39.42;98872.19;2087201;28;20398;-72
2022/08/16 01:03:40;;;;;;;;;;;;;;;27.40;39.68;98870.28;2085874;28;19932;-73
2022/08/16 01:04:40;;;;;;;;;;;;;;;27.39;39.49;98874.09;2087827;28;19917;-72
2022/08/16 01:05:41;;;;;;;;;;;;;;;27.39;39.75;98882.41;2088607;28;20398;-72
2022/08/16 01:06:42;;;;;;;;;;;;;;;27.39;39.76;98871.34;2086356;28;20144;-72
2022/08/16 01:07:44;;;;;;;;;;;;;;;27.40;39.69;98878.56;2086479;28;20726;-72
2022/08/16 01:08:47;;;;;;;;;;;;;;;27.39;39.50;98882.41;2091337;28;19989;-72
2022/08/16 01:09:48;;;;;;;;;;;;;;;27.39;39.61;98885.16;2087279;28;20375;-73
2022/08/16 01:10:50;;;;;;;;;;;;;;;27.39;39.67;98883.28;2087236;28;20344;-73
2022/08/16 01:11:51;;;;;;;;;;;;;;;27.39;39.63;98887.94;2090097;28;19963;-72
2022/08/16 01:12:54;;;;;;;;;;;;;;;27.39;39.78;98883.28;2089248;28;19927;-72
2022/08/16 01:13:58;;;;;;;;;;;;;;;27.39;39.79;98882.41;2088015;28;20423;-73
2022/08/16 01:14:59;;;;;;;;;;;;;;;27.38;39.65;98880.72;2090880;28;19924;-73
2022/08/16 01:16:05;;;;;;;;;;;;;;;27.38;39.78;98883.50;2085635;28;20363;-71
2022/08/16 01:17:05;;;;;;;;;;;;;;;27.39;39.75;98882.41;2089575;28;19908;-71
2022/08/16 01:18:07;;;;;;;;;;;;;;;27.39;39.42;98887.94;2088234;28;19922;-72
2022/08/16 01:19:10;;;;;;;;;;;;;;;27.39;39.75;98885.16;2087086;28;19904;-71
2022/08/16 01:20:12;;;;;;;;;;;;;;;27.39;39.49;98887.94;2086900;28;19916;-71
2022/08/16 01:21:15;;;;;;;;;;;;;;;27.39;39.48;98887.94;2090121;28;20674;-72
2022/08/16 01:22:23;;;;;;;;;;;;;;;27.39;39.78;98879.63;2093266;28;19963;-72
2022/08/16 01:23:28;;;;;;;;;;;;;;;27.39;39.53;98882.41;2092211;28;19965;-71
2022/08/16 01:24:32;;;;;;;;;;;;;;;27.39;39.67;98882.41;2087084;28;19927;-72
2022/08/16 01:25:35;;;;;;;;;;;;;;;27.39;39.67;98883.28;2084807;28;20375;-72
2022/08/16 01:26:37;;;;;;;;;;;;;;;27.39;39.77;98883.28;2083358;28;20431;-72
2022/08/16 01:27:39;;;;;;;;;;;;;;;27.38;39.76;98881.56;2092117;28;20018;-70
2022/08/16 01:28:42;;;;;;;;;;;;;;;27.39;39.72;98876.88;2088250;28;19936;-72
2022/08/16 01:29:49;;;;;;;;;;;;;;;27.39;39.75;98882.41;2090200;28;20052;-71
2022/08/16 01:30:52;;;;;;;;;;;;;;;27.39;39.41;98882.41;2077367;28;19914;-72
2022/08/16 01:31:52;;;;;;;;;;;;;;;27.39;39.52;98885.16;2075603;28;19913;-72
2022/08/16 01:32:54;;;;;;;;;;;;;;;27.38;39.70;98883.50;2081587;28;19916;-71
2022/08/16 01:33:55;;;;;;;;;;;;;;;27.39;39.78;98879.63;2081401;28;20675;-71
2022/08/16 01:34:55;;;;;;;;;;;;;;;27.38;39.78;98881.56;2091389;28;20428;-71
2022/08/16 01:35:57;;;;;;;;;;;;;;;27.38;39.62;98875.19;2091646;28;20004;-71
2022/08/16 01:36:59;;;;;;;;;;;;;;;27.38;39.64;98881.56;2086677;28;20465;-71
2022/08/16 01:38:20;;;;;;;;;;;;;;;27.38;39.57;98887.09;2086216;28;20022;-72
2022/08/16 01:39:21;;;;;;;;;;;;;;;27.38;39.61;98886.25;2089309;28;20461;-72
2022/08/16 01:40:23;;;;;;;;;;;;;;;27.38;39.70;98880.72;2091389;28;20790;-72
2022/08/16 01:41:29;;;;;;;;;;;;;;;27.38;39.78;98880.72;2091564;28;20022;-72
2022/08/16 01:42:29;;;;;;;;;;;;;;;27.36;39.85;98881.81;2092483;28;19923;-72
2022/08/16 01:43:30;;;;;;;;;;;;;;;27.37;39.82;98885.41;2088055;28;20033;-72
2022/08/16 01:44:30;;;;;;;;;;;;;;;27.37;39.61;98882.66;2085994;28;19938;-72
2022/08/16 01:45:31;;;;;;;;;;;;;;;27.36;39.61;98884.59;2089435;28;20362;-72
2022/08/16 01:46:45;;;;;;;;;;;;;;;27.38;39.53;98880.72;2092482;28;19912;-72
2022/08/16 01:47:47;;;;;;;;;;;;;;;27.38;39.74;98883.50;2091894;28;20082;-71
2022/08/16 01:48:51;;;;;;;;;;;;;;;27.37;39.83;98882.66;2093589;28;19912;-72
2022/08/16 01:49:51;;;;;;;;;;;;;;;27.36;39.87;98878.19;2089772;28;19917;-72
2022/08/16 01:50:52;;;;;;;;;;;;;;;27.35;39.68;98877.34;2084004;28;19917;-72
2022/08/16 01:51:54;;;;;;;;;;;;;;;27.34;39.77;98881.19;2091303;28;19922;-72
2022/08/16 01:52:55;;;;;;;;;;;;;;;27.35;39.50;98876.50;2088834;28;21029;-71
2022/08/16 01:53:55;;;;;;;;;;;;;;;27.34;39.83;98875.66;2095012;28;19920;-72
2022/08/16 01:54:56;;;;;;;;;;;;;;;27.34;39.83;98875.66;2091711;28;19955;-72
2022/08/16 01:55:56;;;;;;;;;;;;;;;27.34;39.78;98874.81;2086850;28;19931;-72
2022/08/16 01:56:57;;;;;;;;;;;;;;;27.34;39.66;98875.66;2090183;28;19920;-72
2022/08/16 01:57:57;;;;;;;;;;;;;;;27.34;39.52;98883.09;2088905;28;20075;-72
2022/08/16 01:58:59;;;;;;;;;;;;;;;27.34;39.71;98874.81;2094943;28;19918;-72
2022/08/16 02:00:00;;;;;;;;;;;;;;;27.33;39.86;98867.59;2091932;28;20974;-72
2022/08/16 02:01:00;;;;;;;;;;;;;;;27.33;39.80;98879.50;2098322;28;19996;-72
2022/08/16 02:02:01;;;;;;;;;;;;;;;27.32;39.86;98872.28;2090553;28;20466;-72
2022/08/16 02:03:01;;;;;;;;;;;;;;;27.32;39.79;98875.06;2090119;28;20252;-72
2022/08/16 02:04:02;;;;;;;;;;;;;;;27.33;39.85;98879.50;2094637;28;19915;-72
2022/08/16 02:05:03;;;;;;;;;;;;;;;27.33;39.73;98873.13;2091964;28;20744;-72
2022/08/16 02:06:04;;;;;;;;;;;;;;;27.32;39.86;98875.06;2088313;28;19967;-71
2022/08/16 02:07:07;;;;;;;;;;;;;;;27.33;39.98;98873.97;2089685;28;19912;-72
2022/08/16 02:08:08;;;;;;;;;;;;;;;27.34;39.86;98872.91;2079647;28;19917;-72
2022/08/16 02:09:13;;;;;;;;;;;;;;;27.33;39.80;98868.44;2086924;28;19916;-72
2022/08/16 02:10:15;;;;;;;;;;;;;;;27.34;39.52;98872.91;2089488;28;19970;-72
2022/08/16 02:11:15;;;;;;;;;;;;;;;27.34;39.61;98875.66;2087153;28;20102;-72
2022/08/16 02:12:16;;;;;;;;;;;;;;;27.34;39.88;98875.66;2088188;28;19912;-72
2022/08/16 02:13:17;;;;;;;;;;;;;;;27.34;39.67;98870.13;2091135;28;19916;-72
2022/08/16 02:14:18;;;;;;;;;;;;;;;27.33;39.79;98871.19;2089075;28;19959;-72
2022/08/16 02:15:20;;;;;;;;;;;;;;;27.34;39.65;98880.34;2089382;28;19917;-72
2022/08/16 02:16:21;;;;;;;;;;;;;;;27.34;39.69;98872.91;2096060;28;20044;-71
2022/08/16 02:17:21;;;;;;;;;;;;;;;27.32;39.93;98866.75;2082221;28;19997;-72
2022/08/16 02:18:21;;;;;;;;;;;;;;;27.33;39.60;98867.59;2085097;28;20003;-72
2022/08/16 02:19:22;;;;;;;;;;;;;;;27.32;39.72;98866.75;2082919;28;19909;-72
2022/08/16 02:20:24;;;;;;;;;;;;;;;27.32;39.78;98861.22;2090019;28;19916;-73
2022/08/16 02:21:24;;;;;;;;;;;;;;;27.33;39.59;98870.34;2090053;28;19923;-73
2022/08/16 02:22:24;;;;;;;;;;;;;;;27.32;39.77;98864.00;2090696;28;19916;-71
2022/08/16 02:23:25;;;;;;;;;;;;;;;27.32;39.71;98861.22;2093182;28;19916;-72
2022/08/16 02:24:25;;;;;;;;;;;;;;;27.32;39.63;98872.28;2093032;28;19965;-72
2022/08/16 02:25:26;;;;;;;;;;;;;;;27.32;39.74;98869.53;2091068;28;20661;-71
2022/08/16 02:26:26;;;;;;;;;;;;;;;27.32;39.71;98871.44;2087331;28;19916;-73
2022/08/16 02:27:26;;;;;;;;;;;;;;;27.32;39.86;98869.53;2091052;28;19955;-73
2022/08/16 02:28:27;;;;;;;;;;;;;;;27.32;39.64;98871.44;2082099;28;19916;-72
2022/08/16 02:29:27;;;;;;;;;;;;;;;27.31;39.63;98876.13;2091447;28;19916;-71
2022/08/16 02:30:29;;;;;;;;;;;;;;;27.31;39.91;98870.56;2091282;28;19924;-71
2022/08/16 02:31:29;;;;;;;;;;;;;;;27.32;39.92;98877.81;2079741;28;19919;-72
2022/08/16 02:32:29;;;;;;;;;;;;;;;27.31;39.75;98870.56;2079224;28;19992;-72
2022/08/16 02:33:30;;;;;;;;;;;;;;;27.31;39.65;98870.56;2089700;28;19916;-72
2022/08/16 02:34:30;;;;;;;;;;;;;;;27.32;39.91;98876.97;2091354;28;20473;-72
2022/08/16 02:35:31;;;;;;;;;;;;;;;27.31;39.76;98869.75;2092161;28;19916;-72
2022/08/16 02:36:31;;;;;;;;;;;;;;;27.31;39.80;98865.03;2078523;28;19912;-72
2022/08/16 02:37:32;;;;;;;;;;;;;;;27.29;39.65;98866.34;2077570;28;19913;-73
2022/08/16 02:38:32;;;;;;;;;;;;;;;27.30;39.68;98868.91;2088424;28;19966;-73
2022/08/16 02:39:33;;;;;;;;;;;;;;;27.29;39.94;98864.47;2081541;28;19931;-73
2022/08/16 02:40:36;;;;;;;;;;;;;;;27.29;39.95;98864.47;2092379;28;19919;-73
2022/08/16 02:41:38;;;;;;;;;;;;;;;27.28;39.70;98860.00;2094203;28;20008;-72
2022/08/16 02:42:39;;;;;;;;;;;;;;;27.28;39.65;98859.16;2087151;28;19916;-72
2022/08/16 02:43:39;;;;;;;;;;;;;;;27.28;39.90;98860.00;2088574;28;19958;-71
2022/08/16 02:44:40;;;;;;;;;;;;;;;27.28;39.81;98864.69;2093585;28;19923;-70
2022/08/16 02:45:40;;;;;;;;;;;;;;;27.28;39.91;98864.69;2091749;28;19947;-71
2022/08/16 02:46:42;;;;;;;;;;;;;;;27.27;39.81;98857.47;2096126;28;20367;-71
2022/08/16 02:47:42;;;;;;;;;;;;;;;27.26;39.82;98856.59;2095012;28;20003;-71
2022/08/16 02:48:42;;;;;;;;;;;;;;;27.26;39.80;98848.31;2094897;28;20774;-71
2022/08/16 02:49:43;;;;;;;;;;;;;;;27.26;39.66;98855.75;2097213;28;20331;-72
2022/08/16 02:50:43;;;;;;;;;;;;;;;27.26;39.95;98850.22;2095554;28;19916;-72
2022/08/16 02:51:43;;;;;;;;;;;;;;;27.26;39.68;98851.06;2095099;28;19961;-72
2022/08/16 02:52:44;;;;;;;;;;;;;;;27.26;39.70;98845.53;2096146;28;19912;-72
2022/08/16 02:53:45;;;;;;;;;;;;;;;27.26;39.70;98844.69;2092915;28;20057;-71
2022/08/16 02:54:46;;;;;;;;;;;;;;;27.27;39.69;98847.25;2095867;28;20396;-71
2022/08/16 02:55:46;;;;;;;;;;;;;;;27.27;39.60;98843.63;2086082;28;19933;-72
2022/08/16 02:56:47;;;;;;;;;;;;;;;27.27;39.66;98843.63;2083648;28;19912;-71
2022/08/16 02:57:48;;;;;;;;;;;;;;;27.28;39.59;98848.09;2073909;28;19917;-72
2022/08/16 02:58:53;;;;;;;;;;;;;;;27.28;39.61;98843.38;2081589;28;20390;-72
2022/08/16 02:59:53;;;;;;;;;;;;;;;27.28;39.59;98837.00;2080582;28;20039;-73
2022/08/16 03:00:54;;;;;;;;;;;;;;;27.28;39.68;98837.84;2086605;28;19917;-73
2022/08/16 03:01:55;;;;;;;;;;;;;;;27.27;39.85;98836.19;2082895;28;20255;-73
2022/08/16 03:02:55;;;;;;;;;;;;;;;27.27;39.90;98836.19;2087685;28;20433;-73
2022/08/16 03:03:58;;;;;;;;;;;;;;;27.28;39.77;98837.84;2083827;28;19986;-72
2022/08/16 03:04:59;;;;;;;;;;;;;;;27.27;39.87;98833.41;2078516;28;19917;-72
2022/08/16 03:05:59;;;;;;;;;;;;;;;27.27;39.84;98833.41;2088241;28;19916;-72
2022/08/16 03:06:59;;;;;;;;;;;;;;;27.27;39.81;98830.66;2084275;28;19923;-73
2022/08/16 03:08:00;;;;;;;;;;;;;;;27.26;39.80;98834.47;2087987;28;19965;-72
2022/08/16 03:09:00;;;;;;;;;;;;;;;27.25;39.54;98830.03;2084350;28;19917;-72
2022/08/16 03:10:01;;;;;;;;;;;;;;;27.25;39.68;98837.50;2083391;28;19927;-73
2022/08/16 03:11:01;;;;;;;;;;;;;;;27.24;39.39;98836.66;2081280;28;20003;-72
2022/08/16 03:12:04;;;;;;;;;;;;;;;27.23;39.48;98832.19;2082462;28;20036;-73
2022/08/16 03:13:05;;;;;;;;;;;;;;;27.22;39.72;98836.03;2083119;28;19927;-73
2022/08/16 03:14:06;;;;;;;;;;;;;;;27.22;39.54;98827.75;2084010;28;19967;-71
2022/08/16 03:15:06;;;;;;;;;;;;;;;27.22;39.48;98833.28;2088053;28;19993;-71
2022/08/16 03:16:07;;;;;;;;;;;;;;;27.22;39.80;98838.81;2085324;28;20251;-72
2022/08/16 03:17:07;;;;;;;;;;;;;;;27.22;39.50;98838.81;2088620;28;19916;-72
2022/08/16 03:18:07;;;;;;;;;;;;;;;27.23;39.55;98834.13;2084159;28;19917;-72
2022/08/16 03:19:08;;;;;;;;;;;;;;;27.23;39.65;98832.19;2087056;28;19927;-71
2022/08/16 03:20:09;;;;;;;;;;;;;;;27.21;39.69;98826.03;2086881;28;19951;-71
2022/08/16 03:21:11;;;;;;;;;;;;;;;27.23;39.79;98829.41;2085413;28;19924;-71
2022/08/16 03:22:12;;;;;;;;;;;;;;;27.22;39.87;98822.22;2080986;28;20652;-72
2022/08/16 03:23:12;;;;;;;;;;;;;;;27.23;39.68;98823.03;2085594;28;20034;-72
2022/08/16 03:24:12;;;;;;;;;;;;;;;27.22;39.55;98819.44;2083543;28;19923;-71
2022/08/16 03:25:14;;;;;;;;;;;;;;;27.22;39.80;98822.22;2078344;28;19923;-72
2022/08/16 03:26:15;;;;;;;;;;;;;;;27.21;39.75;98825.19;2081482;28;19920;-72
2022/08/16 03:27:15;;;;;;;;;;;;;;;27.21;39.57;98819.66;2085161;28;19919;-72
2022/08/16 03:28:15;;;;;;;;;;;;;;;27.20;39.44;98816.06;2084141;28;20011;-71
2022/08/16 03:29:16;;;;;;;;;;;;;;;27.20;39.49;98820.75;2082040;28;19916;-72
2022/08/16 03:30:18;;;;;;;;;;;;;;;27.20;39.59;98818.81;2086494;28;20287;-72
2022/08/16 03:31:19;;;;;;;;;;;;;;;27.20;39.57;98824.34;2080252;28;19917;-73
2022/08/16 03:32:19;;;;;;;;;;;;;;;27.19;39.72;98817.13;2084369;28;19916;-71
2022/08/16 03:33:19;;;;;;;;;;;;;;;27.20;39.53;98813.28;2073518;28;20050;-72
2022/08/16 03:34:20;;;;;;;;;;;;;;;27.19;39.54;98808.81;2085705;28;20151;-72
2022/08/16 03:35:22;;;;;;;;;;;;;;;27.19;39.71;98811.59;2086761;28;19912;-72
2022/08/16 03:36:22;;;;;;;;;;;;;;;27.20;39.71;98809.69;2080177;28;20163;-72
2022/08/16 03:37:22;;;;;;;;;;;;;;;27.19;39.79;98811.59;2079252;28;19952;-72
2022/08/16 03:38:23;;;;;;;;;;;;;;;27.19;39.53;98811.59;2082683;28;20642;-72
2022/08/16 03:39:23;;;;;;;;;;;;;;;27.19;39.67;98808.81;2080360;28;19921;-72
2022/08/16 03:40:24;;;;;;;;;;;;;;;27.19;39.57;98810.75;2080729;28;19966;-71
2022/08/16 03:41:25;;;;;;;;;;;;;;;27.19;39.51;98806.06;2085443;28;19947;-70
2022/08/16 03:42:26;;;;;;;;;;;;;;;27.21;39.77;98811.38;2083806;28;19920;-71
2022/08/16 03:43:26;;;;;;;;;;;;;;;27.20;39.57;98813.28;2083241;28;19916;-72
2022/08/16 03:44:27;;;;;;;;;;;;;;;27.20;39.67;98802.22;2081676;28;19917;-72
2022/08/16 03:45:28;;;;;;;;;;;;;;;27.20;39.65;98810.53;2082144;28;19923;-72
2022/08/16 03:46:28;;;;;;;;;;;;;;;27.21;39.79;98814.97;2079563;28;19967;-72
2022/08/16 03:47:28;;;;;;;;;;;;;;;27.20;39.81;98805.00;2084069;28;19917;-71
2022/08/16 03:48:31;;;;;;;;;;;;;;;27.21;39.78;98809.44;2084079;28;19925;-71
2022/08/16 03:49:32;;;;;;;;;;;;;;;27.21;39.78;98803.91;2078006;28;19913;-71
2022/08/16 03:50:34;;;;;;;;;;;;;;;27.21;39.66;98803.06;2087044;28;19916;-71
2022/08/16 03:51:34;;;;;;;;;;;;;;;27.21;39.77;98803.06;2084160;28;19912;-71
2022/08/16 03:52:34;;;;;;;;;;;;;;;27.20;39.75;98796.69;2081342;28;19939;-72
2022/08/16 03:53:35;;;;;;;;;;;;;;;27.20;39.65;98796.69;2078922;28;20111;-73
2022/08/16 03:54:36;;;;;;;;;;;;;;;27.20;39.64;98802.22;2079776;28;20766;-73
2022/08/16 03:55:36;;;;;;;;;;;;;;;27.20;39.51;98801.41;2083131;28;20672;-73
2022/08/16 03:56:36;;;;;;;;;;;;;;;27.20;39.67;98796.69;2092959;28;19977;-73
2022/08/16 03:57:37;;;;;;;;;;;;;;;27.20;39.51;98799.47;2088461;28;19912;-73
2022/08/16 03:58:37;;;;;;;;;;;;;;;27.20;39.59;98802.22;2088231;28;20015;-72
2022/08/16 03:59:37;;;;;;;;;;;;;;;27.21;39.66;98797.53;2096112;28;19938;-73
2022/08/16 04:00:38;;;;;;;;;;;;;;;27.20;39.62;98799.47;2092301;28;20577;-72
2022/08/16 04:01:38;;;;;;;;;;;;;;;27.20;39.67;98796.69;2085112;28;20373;-72
2022/08/16 04:02:39;;;;;;;;;;;;;;;27.20;39.74;98801.41;2084069;28;19921;-72
2022/08/16 04:03:39;;;;;;;;;;;;;;;27.20;39.53;98796.69;2084158;28;19917;-72
2022/08/16 04:04:39;;;;;;;;;;;;;;;27.20;39.70;98799.47;2089853;28;20597;-72
2022/08/16 04:05:42;;;;;;;;;;;;;;;27.19;39.53;98800.53;2094077;28;20540;-72
2022/08/16 04:06:42;;;;;;;;;;;;;;;27.19;39.81;98800.53;2094068;28;20028;-71
2022/08/16 04:07:43;;;;;;;;;;;;;;;27.19;39.80;98794.16;2094559;28;19908;-72
2022/08/16 04:08:43;;;;;;;;;;;;;;;27.20;39.91;98801.41;2093698;28;19916;-72
2022/08/16 04:09:44;;;;;;;;;;;;;;;27.18;39.82;98796.06;2091788;28;19916;-71
2022/08/16 04:10:44;;;;;;;;;;;;;;;27.18;39.66;98793.28;2088388;28;19909;-72
2022/08/16 04:11:45;;;;;;;;;;;;;;;27.17;39.79;98791.59;2079930;28;19964;-72
2022/08/16 04:12:45;;;;;;;;;;;;;;;27.18;39.94;98797.97;2082805;28;20008;-72
2022/08/16 04:13:46;;;;;;;;;;;;;;;27.15;39.81;98789.06;2088176;28;19924;-71
2022/08/16 04:14:47;;;;;;;;;;;;;;;27.16;39.78;98787.97;2089553;28;20012;-72
2022/08/16 04:15:47;;;;;;;;;;;;;;;27.16;39.89;98789.91;2090985;28;19923;-72
2022/08/16 04:16:47;;;;;;;;;;;;;;;27.15;39.74;98788.22;2091440;28;19928;-73
2022/08/16 04:17:48;;;;;;;;;;;;;;;27.15;39.66;98783.53;2087328;28;19923;-71
2022/08/16 04:18:48;;;;;;;;;;;;;;;27.15;39.76;98788.22;2093244;28;19966;-73
2022/08/16 04:19:49;;;;;;;;;;;;;;;27.13;39.60;98782.91;2090200;28;19922;-70
2022/08/16 04:20:49;;;;;;;;;;;;;;;27.14;39.71;98786.53;2090316;28;20488;-72
2022/08/16 04:21:49;;;;;;;;;;;;;;;27.13;39.55;98787.63;2086002;28;19917;-72
2022/08/16 04:22:50;;;;;;;;;;;;;;;27.15;39.87;98788.22;2076834;28;19932;-72
2022/08/16 04:23:50;;;;;;;;;;;;;;;27.13;39.55;98790.38;2085646;28;19928;-72
2022/08/16 04:24:51;;;;;;;;;;;;;;;27.13;39.81;98790.38;2094273;28;20007;-73
2022/08/16 04:25:51;;;;;;;;;;;;;;;27.14;39.62;98789.28;2093532;28;19916;-72
2022/08/16 04:26:51;;;;;;;;;;;;;;;27.14;39.70;98786.53;2085259;28;19923;-73
2022/08/16 04:27:51;;;;;;;;;;;;;;;27.13;39.81;98784.84;2090810;28;19916;-73
2022/08/16 04:28:52;;;;;;;;;;;;;;;27.13;39.66;98779.31;2093783;28;19920;-73
2022/08/16 04:29:52;;;;;;;;;;;;;;;27.13;39.49;98784.84;2091380;28;20133;-73
2022/08/16 04:30:53;;;;;;;;;;;;;;;27.13;39.77;98773.78;2086657;28;19912;-72
2022/08/16 04:31:56;;;;;;;;;;;;;;;27.13;39.53;98776.56;2084914;28;20310;-73
2022/08/16 04:32:57;;;;;;;;;;;;;;;27.12;39.76;98777.59;2088824;28;19916;-73
2022/08/16 04:33:58;;;;;;;;;;;;;;;27.12;39.77;98766.53;2088566;28;19924;-72
2022/08/16 04:34:58;;;;;;;;;;;;;;;27.11;39.74;98775.94;2085662;28;20007;-73
2022/08/16 04:35:59;;;;;;;;;;;;;;;27.11;39.64;98773.16;2085678;28;20563;-73
2022/08/16 04:36:59;;;;;;;;;;;;;;;27.11;39.61;98776.78;2094680;28;20357;-72
2022/08/16 04:37:59;;;;;;;;;;;;;;;27.11;39.51;98775.94;2089765;28;19916;-73
2022/08/16 04:39:00;;;;;;;;;;;;;;;27.11;39.48;98775.94;2092941;28;19938;-73
2022/08/16 04:40:00;;;;;;;;;;;;;;;27.11;39.55;98770.41;2093034;28;19923;-73
2022/08/16 04:41:01;;;;;;;;;;;;;;;27.12;39.57;98783.13;2088804;28;19912;-73
2022/08/16 04:42:02;;;;;;;;;;;;;;;27.11;39.54;98771.25;2092857;28;19916;-72
2022/08/16 04:43:02;;;;;;;;;;;;;;;27.11;39.82;98770.41;2089516;28;19920;-73
2022/08/16 04:44:03;;;;;;;;;;;;;;;27.12;39.76;98772.06;2085936;28;20003;-72
2022/08/16 04:45:05;;;;;;;;;;;;;;;27.13;39.56;98768.25;2095094;28;19962;-72
2022/08/16 04:46:06;;;;;;;;;;;;;;;27.12;39.64;98774.84;2091068;28;19963;-73
2022/08/16 04:47:06;;;;;;;;;;;;;;;27.12;39.66;98777.59;2081453;28;19921;-73
2022/08/16 04:48:07;;;;;;;;;;;;;;;27.12;39.84;98774.84;2082879;28;19921;-73
2022/08/16 04:49:09;;;;;;;;;;;;;;;27.12;39.66;98772.06;2078459;28;20327;-73
2022/08/16 04:50:14;;;;;;;;;;;;;;;27.12;39.75;98766.53;2081390;28;20682;-72
2022/08/16 04:51:14;;;;;;;;;;;;;;;27.13;39.61;98762.72;2090944;28;19996;-72
2022/08/16 04:52:14;;;;;;;;;;;;;;;27.12;39.88;98766.53;2092457;28;19920;-72
2022/08/16 04:53:15;;;;;;;;;;;;;;;27.12;39.61;98766.53;2091713;28;20002;-72
2022/08/16 04:54:15;;;;;;;;;;;;;;;27.12;39.79;98763.78;2086319;28;19974;-72
2022/08/16 04:55:22;;;;;;;;;;;;;;;27.12;39.87;98756.34;2088407;28;19916;-72
2022/08/16 04:56:22;;;;;;;;;;;;;;;27.12;39.89;98763.78;2091653;28;19924;-72
2022/08/16 04:57:23;;;;;;;;;;;;;;;27.12;39.74;98761.00;2085615;28;20015;-72
2022/08/16 04:58:23;;;;;;;;;;;;;;;27.11;39.83;98770.41;2088316;28;19974;-72
2022/08/16 04:59:23;;;;;;;;;;;;;;;27.10;39.79;98752.97;2095665;28;20374;-72
2022/08/16 05:00:26;;;;;;;;;;;;;;;27.10;39.58;98764.03;2081484;28;19920;-72
2022/08/16 05:01:26;;;;;;;;;;;;;;;27.10;39.68;98760.44;2083479;28;19913;-72
2022/08/16 05:02:26;;;;;;;;;;;;;;;27.10;39.71;98757.66;2091626;28;19924;-72
2022/08/16 05:03:27;;;;;;;;;;;;;;;27.10;39.85;98768.72;2092059;28;19916;-73
2022/08/16 05:04:27;;;;;;;;;;;;;;;27.09;39.86;98753.19;2095750;28;20365;-72
2022/08/16 05:05:28;;;;;;;;;;;;;;;27.09;39.54;98755.97;2086635;28;19919;-73
2022/08/16 05:06:28;;;;;;;;;;;;;;;27.08;39.56;98757.88;2089987;28;20177;-73
2022/08/16 05:07:29;;;;;;;;;;;;;;;27.08;39.52;98754.28;2093449;28;20308;-71
2022/08/16 05:08:29;;;;;;;;;;;;;;;27.07;39.45;98755.34;2088058;28;19908;-72
2022/08/16 05:09:30;;;;;;;;;;;;;;;27.07;39.78;98755.34;2093638;28;19930;-71
2022/08/16 05:10:30;;;;;;;;;;;;;;;27.06;39.56;98761.97;2092155;28;19923;-71
2022/08/16 05:11:30;;;;;;;;;;;;;;;27.06;39.71;98761.97;2092315;28;19908;-72
2022/08/16 05:12:31;;;;;;;;;;;;;;;27.06;39.83;98750.91;2091266;28;19916;-71
2022/08/16 05:13:33;;;;;;;;;;;;;;;27.07;39.51;98766.41;2089682;28;19912;-72
2022/08/16 05:14:33;;;;;;;;;;;;;;;27.07;39.65;98758.13;2086487;28;19912;-72
2022/08/16 05:15:34;;;;;;;;;;;;;;;27.06;39.46;98767.50;2088360;28;19909;-73
2022/08/16 05:16:34;;;;;;;;;;;;;;;27.07;39.48;98758.13;2086453;28;20591;-73
2022/08/16 05:17:35;;;;;;;;;;;;;;;27.07;39.51;98764.50;2081967;28;19912;-71
2022/08/16 05:18:35;;;;;;;;;;;;;;;27.07;39.84;98763.66;2086213;28;19908;-71